Jacksonville International Airport
KJAX : rendu visible

Aérodrome :











RETROUVEZ-NOUS SUR...

 
LOGIN :

S'inscrire | Disclaimer

   EN    FR    IT 

 









Légende :    VFR   VFR Marginal   IFR   IFR Intensif   IFR Très Intensif
Visi : 
Plafond : 
>= 8 km
>= 3000ft
5 à 8 km
1000 à 3000 ft
1500m à 5 km
500 à 1000 ft
800 à 1500m
200 à 500 ft
< 800m
< 200 ft
Symboles :   Orages  Brouillard  Fortes neiges  Fortes précipitations  Vent > 20 kt






- Altitude de l'aérodrome : 30 ft
- Code IATA : JAX


KJAX - Jacksonville International

DERNIER METAR :
  • 171256Z 35009KT 10SM OVC015 09/06 A2997 RMK AO2 SLP148 T00940061 $

METARs EXPIRÉS :
  • 171156Z 34007KT 10SM OVC013 09/06 A2997 RMK AO2 SLP149 T00940061 10100 20089 51010 $
  • 171056Z 34009G15KT 10SM OVC013 09/06 A2996 RMK AO2 SLP147 T00940061 $

TAF KJAX
Valide du 17 à 12h jusqu'au 18 à 12h UTC


171120Z 1712/1812 34008KT P6SM OVC012
FM171500 34012KT P6SM OVC018
FM171700 34008KT P6SM SCT025 SCT060



MET'MAP, la Météo Aéronautique d'un coup d'oeil ! - Copyright ORBIFLY Décembre 2007 - Disclaimer

ORBIFLY MET'MAP TEAM :

Programmation & Développement : Alexandra Zaïnal
Conception & Développement : Baudouin d'Aumeries
Co-Programmation & Développement : Marc-Olivier Méhu
Soutien technique & logistique : Manuel Goepfert

Contact : metmap@orbifly.com




SOURCES & CREDITS :

   NOAA       Earth
Advisory